Time;durP1;ratioP1;P1;durP2;ratioP2;P2;SDS_P1;SDS_P2;PMS_P1;PMS_P2;Temp;Humidity;BMP_temperature;BMP_pressure;BME280_temperature;BME280_humidity;BME280_pressure;Samples;Min_cycle;Max_cycle;Signal;HPM_P1;HPM_P2
2022/01/11 00:01:23;;;;;;;20.13;14.00;;;6.80;99.90;;;;;;5017398;28;20049;-78
2022/01/11 00:03:49;;;;;;;19.85;14.82;;;6.80;99.90;;;;;;5017536;28;20021;-78
2022/01/11 00:09:23;;;;;;;20.00;14.45;;;6.80;99.90;;;;;;5034724;28;20103;-78
2022/01/11 00:11:50;;;;;;;19.08;15.05;;;6.80;99.90;;;;;;5019041;28;20461;-78
2022/01/11 00:14:16;;;;;;;22.83;14.25;;;6.80;99.90;;;;;;5016359;28;20046;-78
2022/01/11 00:16:42;;;;;;;22.15;15.20;;;6.80;99.90;;;;;;5016102;28;20029;-78
2022/01/11 00:19:07;;;;;;;17.88;13.82;;;6.80;99.90;;;;;;5017530;28;20049;-78
2022/01/11 00:21:38;;;;;;;23.35;16.50;;;6.70;99.90;;;;;;5017369;28;20019;-78
2022/01/11 00:26:49;;;;;;;22.63;14.40;;;6.70;99.90;;;;;;5020897;28;20064;-79
2022/01/11 00:29:14;;;;;;;25.20;16.75;;;6.60;99.90;;;;;;5020130;28;20050;-78
2022/01/11 00:31:42;;;;;;;21.83;15.73;;;6.60;99.90;;;;;;5019846;28;20034;-78
2022/01/11 00:34:08;;;;;;;22.77;15.57;;;6.60;99.90;;;;;;5021326;28;20026;-78
2022/01/11 00:36:42;;;;;;;19.40;15.75;;;6.60;99.90;;;;;;5021138;28;20104;-78
2022/01/11 00:39:09;;;;;;;52.42;25.80;;;6.60;99.90;;;;;;5021343;28;20022;-78
2022/01/11 00:41:40;;;;;;;21.15;16.08;;;6.60;99.90;;;;;;5020002;28;20038;-79
2022/01/11 00:44:07;;;;;;;20.60;15.65;;;6.50;99.90;;;;;;5021242;28;20398;-78
2022/01/11 00:46:34;;;;;;;19.10;16.05;;;6.50;99.90;;;;;;5020992;28;20026;-78
2022/01/11 00:49:00;;;;;;;22.55;17.80;;;6.40;99.90;;;;;;5021098;28;20172;-79
2022/01/11 00:51:26;;;;;;;53.63;26.20;;;6.40;99.90;;;;;;5021268;28;20065;-78
2022/01/11 00:53:57;;;;;;;39.45;22.00;;;6.40;99.90;;;;;;5020938;28;20046;-78
2022/01/11 00:56:23;;;;;;;25.77;20.00;;;6.30;99.90;;;;;;5020734;28;20026;-78
2022/01/11 00:58:49;;;;;;;25.55;19.02;;;6.30;99.90;;;;;;5020963;28;20021;-78
2022/01/11 01:01:15;;;;;;;25.15;19.17;;;6.20;99.90;;;;;;5020820;28;20037;-78
2022/01/11 01:03:43;;;;;;;26.55;20.38;;;6.20;99.90;;;;;;5020961;28;20067;-79
2022/01/11 01:06:09;;;;;;;27.70;20.67;;;6.10;99.90;;;;;;5020464;28;20108;-79
2022/01/11 01:08:35;;;;;;;42.38;24.52;;;6.10;99.90;;;;;;5020844;28;20042;-79
2022/01/11 01:11:01;;;;;;;33.05;21.00;;;6.10;99.90;;;;;;5020637;28;20029;-78
2022/01/11 01:13:29;;;;;;;30.70;20.60;;;6.00;99.90;;;;;;5019206;28;20037;-79
2022/01/11 01:15:56;;;;;;;31.25;22.00;;;5.90;99.90;;;;;;5020352;28;20084;-78
2022/01/11 01:18:25;;;;;;;34.30;22.38;;;5.90;99.90;;;;;;5015064;28;20026;-79
2022/01/11 01:20:53;;;;;;;29.95;22.17;;;5.90;99.90;;;;;;5019981;28;20045;-78
2022/01/11 01:23:19;;;;;;;48.05;27.45;;;5.80;99.90;;;;;;5020311;28;20033;-79
2022/01/11 01:25:49;;;;;;;28.40;21.38;;;5.80;99.90;;;;;;5020254;28;20494;-78
2022/01/11 01:28:17;;;;;;;34.55;21.98;;;5.80;99.90;;;;;;5020168;28;20014;-78
2022/01/11 01:30:44;;;;;;;31.58;21.52;;;5.80;99.90;;;;;;5020335;28;20036;-78
2022/01/11 01:33:10;;;;;;;29.75;20.77;;;5.80;99.90;;;;;;5020010;28;20022;-78
2022/01/11 01:35:39;;;;;;;27.08;19.85;;;5.80;99.90;;;;;;5020076;28;20022;-78
2022/01/11 01:38:07;;;;;;;31.40;20.08;;;5.70;99.90;;;;;;5018602;28;20022;-79
2022/01/11 01:40:39;;;;;;;28.30;21.83;;;5.70;99.90;;;;;;5020227;28;20474;-78
2022/01/11 01:43:08;;;;;;;35.80;20.63;;;5.70;99.90;;;;;;5019807;28;20022;-78
2022/01/11 01:45:34;;;;;;;26.10;19.83;;;5.70;99.90;;;;;;5019961;28;20483;-78
2022/01/11 01:48:00;;;;;;;27.02;20.30;;;5.60;99.90;;;;;;5008069;28;20085;-78
2022/01/11 01:50:27;;;;;;;32.88;21.13;;;5.60;99.90;;;;;;5020129;28;20022;-79
2022/01/11 01:52:56;;;;;;;31.35;21.63;;;5.60;99.90;;;;;;5019507;28;20014;-78
2022/01/11 01:55:23;;;;;;;33.83;21.45;;;5.60;99.90;;;;;;5020081;28;20398;-78
2022/01/11 01:57:50;;;;;;;30.73;21.77;;;5.60;99.90;;;;;;5019540;28;20021;-78
2022/01/11 02:00:18;;;;;;;34.58;21.60;;;5.60;99.90;;;;;;5019736;28;20058;-78
2022/01/11 02:02:44;;;;;;;33.35;21.67;;;5.70;99.90;;;;;;5018186;28;20026;-78
2022/01/11 02:05:10;;;;;;;31.13;21.95;;;5.60;99.90;;;;;;5019635;28;20121;-78
2022/01/11 02:07:36;;;;;;;31.95;22.30;;;5.60;99.90;;;;;;5019128;28;20032;-79
2022/01/11 02:10:05;;;;;;;35.25;23.23;;;5.60;99.90;;;;;;5019365;28;20053;-79
2022/01/11 02:12:31;;;;;;;38.08;23.30;;;5.60;99.90;;;;;;5019303;28;20022;-79
2022/01/11 02:14:57;;;;;;;37.67;23.35;;;5.50;99.90;;;;;;5019501;28;20029;-79
2022/01/11 02:17:27;;;;;;;34.75;23.63;;;5.50;99.90;;;;;;5019300;28;20092;-78
2022/01/11 02:19:55;;;;;;;32.63;21.23;;;5.50;99.90;;;;;;5019432;28;20029;-78
2022/01/11 02:22:22;;;;;;;36.15;23.10;;;5.50;99.90;;;;;;5019205;28;20109;-79
2022/01/11 02:24:48;;;;;;;38.50;23.45;;;5.50;99.90;;;;;;5018410;28;20037;-79
2022/01/11 02:27:14;;;;;;;35.88;23.75;;;5.60;99.90;;;;;;5019184;28;20518;-79
2022/01/11 02:29:40;;;;;;;37.45;23.55;;;5.60;99.90;;;;;;5019491;28;20053;-79
2022/01/11 02:32:06;;;;;;;38.90;25.08;;;5.60;99.90;;;;;;5019039;28;20482;-79
2022/01/11 02:34:32;;;;;;;44.85;25.02;;;5.60;99.90;;;;;;5019068;28;20489;-79
2022/01/11 02:36:57;;;;;;;38.55;24.45;;;5.50;99.90;;;;;;5018739;28;20022;-79
2022/01/11 02:39:23;;;;;;;45.22;25.02;;;5.50;99.90;;;;;;5018945;28;20029;-79
2022/01/11 02:41:52;;;;;;;48.55;25.08;;;5.50;99.90;;;;;;5017445;28;20506;-79
2022/01/11 02:44:18;;;;;;;52.05;26.95;;;5.50;99.90;;;;;;5017936;28;20117;-79
2022/01/11 02:46:44;;;;;;;50.65;27.40;;;5.50;99.90;;;;;;5018759;28;20064;-79
2022/01/11 02:49:10;;;;;;;51.55;26.13;;;5.50;99.90;;;;;;5018920;28;20029;-79
2022/01/11 02:51:36;;;;;;;56.25;26.95;;;5.50;99.90;;;;;;5018737;28;20021;-79
2022/01/11 02:54:02;;;;;;;47.25;25.95;;;5.50;99.90;;;;;;5018741;28;20108;-79
2022/01/11 02:56:28;;;;;;;39.97;23.52;;;5.50;99.90;;;;;;5018526;28;20025;-79
2022/01/11 02:58:54;;;;;;;49.33;25.45;;;5.50;99.90;;;;;;5018689;28;20431;-79
2022/01/11 03:01:20;;;;;;;45.22;24.38;;;5.50;99.90;;;;;;5017512;28;20517;-78
2022/01/11 03:03:47;;;;;;;43.78;24.52;;;5.40;99.90;;;;;;5017408;28;20402;-79
2022/01/11 03:06:13;;;;;;;48.97;25.27;;;5.40;99.90;;;;;;5016890;28;20026;-78
2022/01/11 03:08:44;;;;;;;41.15;23.00;;;5.40;99.90;;;;;;5016945;28;20109;-80
2022/01/11 03:11:14;;;;;;;42.25;23.30;;;5.40;99.90;;;;;;5017092;28;20018;-79
2022/01/11 03:13:43;;;;;;;38.25;22.85;;;5.30;99.90;;;;;;5016992;28;20026;-78
2022/01/11 03:16:10;;;;;;;41.97;22.15;;;5.30;99.90;;;;;;5018444;28;20030;-78
2022/01/11 03:18:36;;;;;;;53.83;22.75;;;5.30;99.90;;;;;;5018150;28;20064;-78
2022/01/11 03:21:02;;;;;;;47.50;21.98;;;5.30;99.90;;;;;;5018083;28;20022;-79
2022/01/11 03:23:28;;;;;;;56.80;23.85;;;5.30;99.90;;;;;;5018302;28;20032;-79
2022/01/11 03:25:54;;;;;;;39.45;21.23;;;5.30;99.90;;;;;;5018359;28;20018;-79
2022/01/11 03:28:20;;;;;;;63.72;22.08;;;5.30;99.90;;;;;;5018026;28;20030;-80
2022/01/11 03:30:48;;;;;;;47.47;23.13;;;5.40;99.90;;;;;;5017188;28;20030;-79
2022/01/11 03:33:14;;;;;;;45.47;21.55;;;5.40;99.90;;;;;;5016716;28;20029;-79
2022/01/11 03:35:41;;;;;;;41.20;22.50;;;5.40;99.90;;;;;;5016605;28;20083;-79
2022/01/11 03:38:09;;;;;;;36.65;20.70;;;5.40;99.90;;;;;;5016639;28;20032;-79
2022/01/11 03:40:35;;;;;;;47.17;22.33;;;5.50;99.90;;;;;;5016688;28;20565;-79
2022/01/11 03:43:01;;;;;;;49.20;23.08;;;5.50;99.90;;;;;;5016440;28;20117;-79
2022/01/11 03:45:27;;;;;;;44.72;20.52;;;5.50;99.90;;;;;;5017860;28;20105;-79
2022/01/11 03:47:56;;;;;;;57.53;23.75;;;5.50;99.90;;;;;;5016270;28;20405;-79
2022/01/11 03:50:22;;;;;;;52.97;24.13;;;5.50;99.90;;;;;;5016806;28;20022;-79
2022/01/11 03:52:57;;;;;;;53.45;25.38;;;5.60;99.90;;;;;;5017392;28;20053;-80
2022/01/11 03:55:42;;;;;;;53.47;25.98;;;5.60;99.90;;;;;;5017875;28;20427;-79
2022/01/11 03:58:08;;;;;;;63.33;25.70;;;5.60;99.90;;;;;;5017462;28;20030;-79
2022/01/11 04:00:34;;;;;;;54.63;26.73;;;5.70;99.90;;;;;;5015749;28;20037;-79
2022/01/11 04:02:59;;;;;;;57.15;26.40;;;5.70;99.90;;;;;;5017640;28;20041;-79
2022/01/11 04:05:25;;;;;;;60.25;27.58;;;5.70;99.90;;;;;;5017567;28;20502;-79
2022/01/11 04:07:51;;;;;;;60.72;27.05;;;5.80;99.90;;;;;;5017009;28;20033;-79
2022/01/11 04:10:17;;;;;;;67.05;27.80;;;5.80;99.90;;;;;;5016017;28;20049;-79
2022/01/11 04:12:42;;;;;;;68.75;26.95;;;5.80;99.90;;;;;;5015835;28;20022;-79
2022/01/11 04:15:08;;;;;;;60.67;26.58;;;5.80;99.90;;;;;;5028848;28;20028;-79
2022/01/11 04:17:34;;;;;;;58.78;26.42;;;5.90;99.90;;;;;;5035766;28;20033;-80
2022/01/11 04:20:00;;;;;;;70.18;28.13;;;5.90;99.90;;;;;;5025217;28;20081;-79
2022/01/11 04:22:26;;;;;;;73.35;31.45;;;5.90;99.90;;;;;;5047965;28;20498;-80
2022/01/11 04:24:51;;;;;;;77.68;32.45;;;5.90;99.90;;;;;;5049116;28;20026;-80
2022/01/11 04:27:17;;;;;;;93.53;34.35;;;5.90;99.90;;;;;;5017250;28;20100;-80
2022/01/11 04:29:43;;;;;;;68.40;29.83;;;5.90;99.90;;;;;;5016064;28;20572;-80
2022/01/11 04:32:09;;;;;;;73.07;30.95;;;5.90;99.90;;;;;;5016018;28;20022;-80
2022/01/11 04:34:34;;;;;;;81.78;31.60;;;5.90;99.90;;;;;;5017249;28;20533;-80
2022/01/11 04:37:00;;;;;;;64.47;30.17;;;5.90;99.90;;;;;;5015550;28;20487;-81
2022/01/11 04:39:26;;;;;;;72.45;30.70;;;6.00;99.90;;;;;;5017406;28;20030;-79
2022/01/11 04:41:52;;;;;;;61.53;28.27;;;5.90;99.90;;;;;;5017243;28;20040;-79
2022/01/11 04:44:18;;;;;;;57.78;28.08;;;5.90;99.90;;;;;;5015878;28;20034;-80
2022/01/11 04:46:43;;;;;;;68.05;28.85;;;5.90;99.90;;;;;;5017086;28;20018;-80
2022/01/11 04:49:09;;;;;;;66.35;29.90;;;5.90;99.90;;;;;;5017070;28;20037;-79
2022/01/11 04:51:35;;;;;;;70.30;31.85;;;6.00;99.90;;;;;;5016960;28;20394;-80
2022/01/11 04:54:02;;;;;;;67.47;30.83;;;6.00;99.90;;;;;;5007570;28;20022;-80
2022/01/11 04:56:28;;;;;;;70.75;30.83;;;6.00;99.90;;;;;;5015482;28;20018;-80
2022/01/11 04:58:55;;;;;;;62.50;30.05;;;6.00;99.90;;;;;;5017096;28;20030;-80
2022/01/11 05:01:21;;;;;;;46.90;25.60;;;6.00;99.90;;;;;;5016744;28;20050;-79
2022/01/11 05:03:46;;;;;;;46.75;25.23;;;6.00;99.90;;;;;;5015663;28;20468;-80
2022/01/11 05:06:12;;;;;;;38.60;21.95;;;6.00;99.90;;;;;;5016568;28;20049;-80
2022/01/11 05:08:38;;;;;;;48.60;22.42;;;6.10;99.90;;;;;;5016948;28;20584;-79
2022/01/11 05:11:03;;;;;;;42.65;22.60;;;6.10;99.90;;;;;;5017510;28;20053;-80
2022/01/11 05:13:31;;;;;;;41.95;21.13;;;6.10;99.90;;;;;;5019227;28;20117;-80
2022/01/11 05:15:59;;;;;;;43.38;22.13;;;6.10;99.90;;;;;;5019085;28;20036;-79
2022/01/11 05:18:24;;;;;;;42.03;21.60;;;6.10;99.90;;;;;;5019116;28;20410;-79
2022/01/11 05:20:50;;;;;;;44.42;19.58;;;6.10;99.90;;;;;;5018719;28;20037;-80
2022/01/11 05:23:16;;;;;;;39.10;20.60;;;6.10;99.90;;;;;;5020792;28;20030;-80
2022/01/11 05:25:43;;;;;;;34.92;21.98;;;6.10;99.90;;;;;;5020365;28;20061;-80
2022/01/11 05:28:08;;;;;;;33.63;18.95;;;6.10;99.90;;;;;;5018852;28;20042;-79
2022/01/11 05:30:34;;;;;;;49.05;22.73;;;6.10;99.90;;;;;;5019050;28;20018;-79
2022/01/11 05:33:00;;;;;;;37.20;19.23;;;6.10;99.90;;;;;;5014818;28;20033;-79
2022/01/11 05:35:26;;;;;;;27.45;18.13;;;6.10;99.90;;;;;;5019886;28;20028;-79
2022/01/11 05:37:52;;;;;;;33.65;20.33;;;6.20;99.90;;;;;;5019904;28;20084;-80
2022/01/11 05:40:19;;;;;;;38.25;19.95;;;6.10;99.90;;;;;;5020057;28;20057;-79
2022/01/11 05:42:46;;;;;;;35.53;19.75;;;6.10;99.90;;;;;;5019946;28;20026;-79
2022/01/11 05:45:13;;;;;;;38.17;19.65;;;6.10;99.90;;;;;;5019924;28;20022;-79
2022/01/11 05:47:39;;;;;;;34.88;18.83;;;6.10;99.90;;;;;;5032666;28;20025;-80
2022/01/11 05:50:08;;;;;;;37.30;20.42;;;6.20;99.90;;;;;;5038339;28;20490;-79
2022/01/11 05:52:35;;;;;;;40.53;20.73;;;6.20;99.90;;;;;;5038058;28;20022;-80
2022/01/11 05:55:03;;;;;;;34.45;20.08;;;6.20;99.90;;;;;;5039917;28;20116;-79
2022/01/11 05:57:29;;;;;;;34.28;19.40;;;6.20;99.90;;;;;;5037969;28;20030;-79
2022/01/11 05:59:54;;;;;;;34.38;20.23;;;6.20;99.90;;;;;;5039650;28;20028;-79
2022/01/11 06:02:20;;;;;;;38.53;20.50;;;6.20;99.90;;;;;;5038270;28;20036;-79
2022/01/11 06:04:46;;;;;;;32.50;19.90;;;6.20;99.90;;;;;;5039492;28;20466;-79
2022/01/11 06:07:12;;;;;;;36.80;18.70;;;6.20;99.90;;;;;;5039473;28;20116;-79
2022/01/11 06:09:37;;;;;;;30.77;19.05;;;6.20;99.90;;;;;;5039113;28;20050;-79
2022/01/11 06:12:04;;;;;;;27.10;17.23;;;6.20;99.90;;;;;;5037661;28;20516;-79
2022/01/11 06:14:29;;;;;;;24.20;16.02;;;6.20;99.90;;;;;;5039338;28;20018;-79
2022/01/11 06:16:55;;;;;;;28.77;17.02;;;6.20;99.90;;;;;;5039040;28;20028;-79
2022/01/11 06:19:21;;;;;;;28.92;16.95;;;6.20;99.90;;;;;;5032725;28;20021;-79
2022/01/11 06:21:47;;;;;;;21.40;15.00;;;6.20;99.90;;;;;;5018098;28;20109;-79
2022/01/11 06:24:13;;;;;;;23.23;14.85;;;6.20;99.90;;;;;;5017470;28;20060;-79
2022/01/11 06:26:39;;;;;;;22.52;14.50;;;6.20;99.90;;;;;;5019221;28;20030;-78
2022/01/11 06:29:04;;;;;;;28.48;14.93;;;6.20;99.90;;;;;;5017813;28;20032;-78
2022/01/11 06:31:32;;;;;;;26.38;13.60;;;6.10;99.90;;;;;;5019306;28;20418;-78
2022/01/11 06:33:58;;;;;;;22.80;13.70;;;6.00;99.90;;;;;;5019033;28;20133;-78
2022/01/11 06:36:24;;;;;;;22.98;13.07;;;5.90;99.90;;;;;;5017383;28;20034;-79
2022/01/11 06:38:50;;;;;;;21.25;13.52;;;5.80;99.90;;;;;;5017641;28;20025;-79
2022/01/11 06:41:16;;;;;;;24.70;14.50;;;5.80;99.90;;;;;;5018956;28;20498;-79
2022/01/11 06:43:42;;;;;;;23.10;14.13;;;5.70;99.90;;;;;;5017729;28;20036;-79
2022/01/11 06:46:08;;;;;;;22.63;14.85;;;5.70;99.90;;;;;;5018889;28;20026;-79
2022/01/11 06:48:34;;;;;;;24.65;14.63;;;5.60;99.90;;;;;;5017491;28;20030;-79
2022/01/11 06:51:00;;;;;;;33.15;16.35;;;5.60;99.90;;;;;;5017271;28;20549;-79
2022/01/11 06:53:26;;;;;;;29.95;17.30;;;5.50;99.90;;;;;;5018824;28;20139;-79
2022/01/11 06:55:54;;;;;;;28.02;17.08;;;5.40;99.90;;;;;;5017367;28;20029;-79
2022/01/11 06:58:20;;;;;;;37.78;18.98;;;5.40;99.90;;;;;;5018573;28;20359;-79
2022/01/11 07:00:46;;;;;;;37.10;19.25;;;5.40;99.90;;;;;;5017255;28;20052;-79
2022/01/11 07:03:12;;;;;;;35.28;19.70;;;5.40;99.90;;;;;;5017358;28;20568;-79
2022/01/11 07:05:38;;;;;;;30.20;18.80;;;5.40;99.90;;;;;;5017243;28;20119;-79
2022/01/11 07:08:05;;;;;;;39.20;20.73;;;5.30;99.90;;;;;;5018292;28;20026;-79
2022/01/11 07:10:30;;;;;;;33.13;19.33;;;5.20;99.90;;;;;;5018392;28;20048;-79
2022/01/11 07:12:57;;;;;;;34.72;19.42;;;5.10;99.90;;;;;;5017045;28;20029;-79
2022/01/11 07:15:23;;;;;;;36.75;18.05;;;5.10;99.90;;;;;;5018352;28;20030;-79
2022/01/11 07:17:49;;;;;;;33.22;20.05;;;5.10;99.90;;;;;;5005598;28;20113;-79
2022/01/11 07:20:15;;;;;;;40.22;22.33;;;5.10;99.90;;;;;;5016862;28;20033;-78
2022/01/11 07:22:41;;;;;;;34.80;18.45;;;5.10;99.90;;;;;;5016789;28;20037;-79
2022/01/11 07:25:07;;;;;;;30.40;17.33;;;5.20;99.90;;;;;;5018045;28;20036;-78
2022/01/11 07:27:34;;;;;;;26.70;16.23;;;5.20;99.90;;;;;;5017740;28;20149;-79
2022/01/11 07:30:03;;;;;;;24.60;15.00;;;5.30;99.90;;;;;;5049622;28;20022;-79
2022/01/11 07:32:31;;;;;;;27.52;15.35;;;5.40;99.90;;;;;;5017878;28;20029;-78
2022/01/11 07:34:57;;;;;;;28.80;14.98;;;5.40;99.90;;;;;;5015780;28;20115;-76
2022/01/11 07:37:24;;;;;;;29.67;15.00;;;5.40;99.90;;;;;;5017983;28;20014;-76
2022/01/11 07:39:49;;;;;;;21.83;14.18;;;5.40;99.90;;;;;;5017820;28;20467;-77
2022/01/11 07:42:15;;;;;;;25.52;13.43;;;5.30;99.90;;;;;;5017960;28;20445;-76
2022/01/11 07:44:43;;;;;;;22.30;13.40;;;5.40;99.90;;;;;;5017774;28;20553;-77
2022/01/11 07:47:09;;;;;;;32.42;17.92;;;5.40;99.90;;;;;;5018142;28;20017;-77
2022/01/11 07:49:35;;;;;;;66.30;28.35;;;5.40;99.90;;;;;;5017595;28;20056;-77
2022/01/11 07:52:01;;;;;;;25.38;13.57;;;5.50;99.90;;;;;;5017615;28;20512;-77
2022/01/11 07:54:27;;;;;;;22.55;11.80;;;5.50;99.90;;;;;;5016358;28;20437;-77
2022/01/11 07:56:53;;;;;;;19.05;11.80;;;5.50;99.90;;;;;;5017680;28;20682;-77
2022/01/11 07:59:19;;;;;;;20.70;11.65;;;5.50;99.90;;;;;;5016282;28;20033;-77
2022/01/11 08:01:45;;;;;;;21.40;10.75;;;5.60;99.90;;;;;;5017697;28;20032;-77
2022/01/11 08:04:10;;;;;;;22.98;11.88;;;5.70;99.90;;;;;;5017793;28;20034;-77
2022/01/11 08:06:36;;;;;;;19.15;12.10;;;5.70;99.90;;;;;;5015153;28;20026;-77
2022/01/11 08:09:03;;;;;;;18.38;12.10;;;5.70;99.90;;;;;;5017296;28;20060;-76
2022/01/11 08:11:29;;;;;;;21.02;12.18;;;5.70;99.90;;;;;;5017223;28;20029;-76
2022/01/11 08:13:55;;;;;;;22.88;12.02;;;5.70;99.90;;;;;;5049177;28;20376;-76
2022/01/11 08:16:21;;;;;;;15.80;10.98;;;5.70;99.90;;;;;;5017081;28;20056;-77
2022/01/11 08:18:47;;;;;;;16.48;11.05;;;5.70;99.90;;;;;;5016711;28;20046;-76
2022/01/11 08:21:13;;;;;;;22.60;11.80;;;5.70;99.90;;;;;;5016545;28;20105;-76
2022/01/11 08:23:38;;;;;;;21.17;10.35;;;5.70;99.90;;;;;;5048429;28;20120;-77
2022/01/11 08:26:05;;;;;;;17.13;10.23;;;5.70;99.90;;;;;;5016730;28;20102;-76
2022/01/11 08:28:31;;;;;;;19.55;10.48;;;5.80;99.90;;;;;;5016687;28;20033;-76
2022/01/11 08:30:57;;;;;;;13.27;9.88;;;5.70;99.90;;;;;;5048606;28;20072;-77
2022/01/11 08:33:24;;;;;;;15.02;10.02;;;5.70;99.90;;;;;;5016675;28;20029;-77
2022/01/11 08:35:50;;;;;;;13.90;9.07;;;5.70;99.90;;;;;;5016354;28;20101;-77
2022/01/11 08:38:16;;;;;;;13.15;8.65;;;5.70;99.90;;;;;;5014498;28;20035;-77
2022/01/11 08:40:42;;;;;;;15.15;9.10;;;5.60;99.90;;;;;;5015914;28;20026;-76
2022/01/11 08:43:08;;;;;;;16.23;10.23;;;5.60;99.90;;;;;;5016444;28;20036;-77
2022/01/11 08:45:34;;;;;;;17.77;9.95;;;5.70;99.90;;;;;;5016481;28;20014;-77
2022/01/11 08:48:01;;;;;;;14.43;9.75;;;5.70;99.90;;;;;;5020403;28;20485;-77
2022/01/11 08:50:27;;;;;;;19.90;9.90;;;5.70;99.90;;;;;;5020352;28;20025;-76
2022/01/11 08:52:52;;;;;;;17.15;10.40;;;5.80;99.90;;;;;;5020331;28;20037;-76
2022/01/11 08:55:18;;;;;;;16.65;9.25;;;5.80;99.90;;;;;;5020896;28;20018;-76
2022/01/11 08:57:44;;;;;;;15.80;10.38;;;5.80;99.90;;;;;;5019438;28;20192;-77
2022/01/11 09:00:16;;;;;;;17.45;9.68;;;5.70;99.90;;;;;;5020987;28;20026;-76
2022/01/11 09:02:47;;;;;;;16.85;9.60;;;5.80;99.90;;;;;;5020549;28;20030;-76
2022/01/11 09:05:14;;;;;;;17.15;9.82;;;5.80;99.90;;;;;;5020872;28;20030;-75
2022/01/11 09:07:41;;;;;;;15.60;9.50;;;5.80;99.90;;;;;;5020354;28;20037;-77
2022/01/11 09:10:08;;;;;;;11.30;8.98;;;5.80;99.90;;;;;;5020041;28;20582;-76
2022/01/11 09:12:34;;;;;;;14.52;9.43;;;5.80;99.90;;;;;;5008590;28;20026;-76
2022/01/11 09:15:01;;;;;;;16.48;10.18;;;5.90;99.90;;;;;;5019095;28;20033;-76
2022/01/11 09:17:27;;;;;;;12.98;8.77;;;5.90;99.90;;;;;;5020486;28;20108;-76
2022/01/11 09:19:53;;;;;;;14.00;8.65;;;5.90;99.90;;;;;;5020443;28;20100;-76
2022/01/11 09:22:19;;;;;;;11.45;8.07;;;6.00;99.90;;;;;;5020186;28;20029;-76
2022/01/11 09:24:45;;;;;;;12.48;8.13;;;6.00;99.90;;;;;;5020479;28;20029;-76
2022/01/11 09:27:10;;;;;;;11.18;7.15;;;6.00;99.90;;;;;;5020241;28;20372;-76
2022/01/11 09:29:37;;;;;;;10.45;7.55;;;6.00;99.90;;;;;;5020277;28;20033;-76
2022/01/11 09:32:04;;;;;;;11.35;7.43;;;6.00;99.90;;;;;;5003033;28;20033;-76
2022/01/11 09:34:30;;;;;;;9.82;7.47;;;6.00;99.90;;;;;;5013253;28;20022;-76
2022/01/11 09:36:56;;;;;;;12.23;7.05;;;5.90;99.90;;;;;;5019783;28;20344;-76
2022/01/11 09:39:22;;;;;;;11.50;6.68;;;6.00;99.90;;;;;;5018641;28;20018;-76
2022/01/11 09:41:48;;;;;;;12.10;7.22;;;6.00;99.90;;;;;;5019237;28;20097;-76
2022/01/11 09:44:14;;;;;;;16.40;9.60;;;5.90;99.90;;;;;;5010096;28;20022;-76
2022/01/11 09:46:39;;;;;;;6.28;5.68;;;6.00;99.90;;;;;;5051027;28;20030;-76
2022/01/11 09:49:06;;;;;;;8.25;7.25;;;5.90;99.90;;;;;;5019227;28;20062;-76
2022/01/11 09:51:35;;;;;;;9.90;7.93;;;5.90;99.90;;;;;;5019352;28;20022;-76
2022/01/11 09:54:02;;;;;;;9.85;6.97;;;5.90;99.90;;;;;;5019650;28;20018;-76
2022/01/11 09:56:28;;;;;;;10.60;8.13;;;5.90;99.90;;;;;;5019686;28;20049;-76
2022/01/11 09:58:55;;;;;;;9.15;7.22;;;5.90;99.90;;;;;;5017322;28;20065;-76
2022/01/11 10:01:21;;;;;;;10.70;7.68;;;5.90;99.90;;;;;;5019376;28;20025;-76
2022/01/11 10:03:58;;;;;;;10.98;8.27;;;5.90;99.90;;;;;;5019519;28;20104;-76
2022/01/11 10:06:25;;;;;;;12.45;9.40;;;5.90;99.90;;;;;;5019441;28;20033;-76
2022/01/11 10:09:06;;;;;;;13.30;7.30;;;5.90;99.90;;;;;;5018983;28;20054;-76
2022/01/11 10:11:39;;;;;;;;;;;6.10;99.90;;;;;;5019040;28;20033;-76
2022/01/11 10:14:17;;;;;;;12.02;6.97;;;6.20;99.90;;;;;;5019232;28;19927;-76
2022/01/11 10:16:44;;;;;;;18.45;9.25;;;6.30;99.90;;;;;;5019412;28;20019;-76
2022/01/11 10:19:26;;;;;;;10.40;7.57;;;6.30;99.90;;;;;;5012306;28;20029;-76
2022/01/11 10:21:54;;;;;;;10.73;7.15;;;6.40;99.90;;;;;;5017462;28;20026;-76
2022/01/11 10:24:34;;;;;;;10.48;7.30;;;6.40;99.90;;;;;;5017285;28;20036;-76
2022/01/11 10:27:06;;;;;;;12.70;6.95;;;6.40;99.90;;;;;;5018138;28;20017;-76
2022/01/11 10:29:41;;;;;;;9.60;7.15;;;6.40;99.90;;;;;;5018969;28;20034;-76
2022/01/11 10:32:24;;;;;;;9.15;6.38;;;6.50;99.90;;;;;;5018771;28;20053;-76
2022/01/11 10:34:53;;;;;;;9.60;6.25;;;6.60;99.90;;;;;;5018513;28;20030;-76
2022/01/11 10:37:32;;;;;;;8.18;6.72;;;6.60;99.90;;;;;;5017108;28;20026;-76
2022/01/11 10:40:21;;;;;;;7.65;5.45;;;6.60;99.90;;;;;;5018706;28;20041;-75
2022/01/11 10:42:56;;;;;;;9.23;5.53;;;6.70;99.90;;;;;;5016883;28;20176;-76
2022/01/11 10:45:30;;;;;;;6.70;5.25;;;6.80;99.90;;;;;;5018976;28;20033;-76
2022/01/11 10:47:59;;;;;;;7.80;5.30;;;6.90;99.90;;;;;;5018556;28;20014;-76
2022/01/11 10:50:43;;;;;;;9.38;5.85;;;6.90;99.90;;;;;;5000496;28;20065;-76
2022/01/11 10:53:24;;;;;;;11.65;5.90;;;7.00;99.90;;;;;;5015253;28;20041;-75
2022/01/11 10:55:56;;;;;;;8.52;5.38;;;7.00;99.90;;;;;;5017261;28;20026;-76
2022/01/11 10:58:24;;;;;;;6.57;5.03;;;7.10;99.90;;;;;;5018553;28;20037;-75
2022/01/11 11:00:52;;;;;;;7.03;5.43;;;7.20;99.90;;;;;;5016984;28;20054;-75
2022/01/11 11:03:23;;;;;;;7.13;4.75;;;7.20;99.90;;;;;;5017249;28;20117;-75
2022/01/11 11:05:53;;;;;;;;;;;7.20;99.90;;;;;;5018511;28;20473;-75
2022/01/11 11:08:22;;;;;;;6.60;5.17;;;7.20;99.90;;;;;;5017441;28;19913;-76
2022/01/11 11:11:10;;;;;;;11.63;5.57;;;7.20;99.90;;;;;;5017708;28;20029;-76
2022/01/11 11:13:39;;;;;;;9.93;4.80;;;7.20;99.90;;;;;;5018268;28;20018;-76
2022/01/11 11:16:25;;;;;;;9.57;5.88;;;7.20;99.90;;;;;;5018253;28;20537;-75
2022/01/11 11:18:57;;;;;;;5.97;5.38;;;7.30;99.90;;;;;;5017909;28;20483;-76
2022/01/11 11:21:22;;;;;;;7.43;4.78;;;7.30;99.90;;;;;;5017752;28;20030;-77
2022/01/11 11:23:54;;;;;;;7.45;4.75;;;7.30;99.90;;;;;;5016623;28;20037;-76
2022/01/11 11:26:22;;;;;;;10.55;5.25;;;7.40;99.90;;;;;;5012676;28;20038;-76
2022/01/11 11:28:47;;;;;;;8.63;5.50;;;7.40;99.90;;;;;;5017895;28;20014;-76
2022/01/11 11:31:14;;;;;;;9.55;5.18;;;7.50;99.90;;;;;;5014387;28;20033;-76
2022/01/11 11:33:42;;;;;;;5.88;5.07;;;7.50;99.90;;;;;;5014244;28;20011;-76
2022/01/11 11:36:12;;;;;;;6.07;4.05;;;7.60;99.90;;;;;;5017059;28;20442;-76
2022/01/11 11:38:43;;;;;;;6.33;4.70;;;7.60;99.90;;;;;;5017817;28;20573;-76
2022/01/11 11:41:10;;;;;;;6.97;5.45;;;7.60;99.90;;;;;;5016208;28;20025;-76
2022/01/11 11:43:36;;;;;;;5.20;4.45;;;7.60;99.90;;;;;;5017495;28;20026;-76
2022/01/11 11:46:02;;;;;;;7.55;4.80;;;7.60;99.90;;;;;;5013044;28;20030;-76
2022/01/11 11:48:28;;;;;;;6.32;4.50;;;7.60;99.90;;;;;;5017710;28;20037;-76
2022/01/11 11:50:58;;;;;;;8.23;4.40;;;7.60;99.90;;;;;;5016370;28;20021;-76
2022/01/11 11:53:26;;;;;;;6.78;4.10;;;7.60;99.90;;;;;;5006588;28;20018;-76
2022/01/11 11:56:13;;;;;;;4.25;3.85;;;7.60;99.90;;;;;;5016084;28;20112;-76
2022/01/11 11:58:44;;;;;;;6.72;4.43;;;7.60;99.90;;;;;;5016261;28;20065;-76
2022/01/11 12:01:30;;;;;;;7.97;4.45;;;7.70;99.90;;;;;;5016054;28;20071;-76
2022/01/11 12:03:56;;;;;;;8.95;5.03;;;7.80;99.90;;;;;;5016864;28;20385;-76
2022/01/11 12:06:31;;;;;;;7.43;5.13;;;7.80;99.90;;;;;;5016021;28;20037;-76
2022/01/11 12:09:06;;;;;;;7.28;5.00;;;7.80;99.90;;;;;;5015670;28;20045;-76
2022/01/11 12:11:38;;;;;;;7.10;4.63;;;7.90;99.90;;;;;;5016448;28;20104;-76
2022/01/11 12:14:04;;;;;;;6.43;3.80;;;7.90;99.90;;;;;;5049366;28;20034;-76
2022/01/11 12:16:35;;;;;;;6.45;3.95;;;7.90;99.90;;;;;;5016209;28;20029;-76
2022/01/11 12:19:05;;;;;;;8.40;4.78;;;7.90;99.90;;;;;;5015746;28;20556;-76
2022/01/11 12:21:41;;;;;;;5.47;3.90;;;8.00;99.90;;;;;;5016293;28;20439;-75
2022/01/11 12:24:07;;;;;;;12.93;4.20;;;8.00;99.90;;;;;;5015791;28;20033;-76
2022/01/11 12:26:35;;;;;;;6.35;4.07;;;8.00;99.90;;;;;;5012456;28;20034;-76
2022/01/11 12:29:11;;;;;;;5.82;4.03;;;8.00;99.90;;;;;;5015660;28;20401;-76
2022/01/11 12:31:59;;;;;;;6.40;4.40;;;8.00;99.90;;;;;;5016570;28;20050;-76
2022/01/11 12:34:50;;;;;;;7.75;4.47;;;8.00;99.90;;;;;;5016026;28;20057;-76
2022/01/11 12:37:40;;;;;;;6.75;4.90;;;8.00;99.90;;;;;;5016987;28;20502;-76
2022/01/11 12:40:13;;;;;;;7.60;4.43;;;8.00;99.90;;;;;;5012931;28;20029;-77
2022/01/11 12:43:02;;;;;;;5.78;4.50;;;8.00;99.90;;;;;;5011189;28;20303;-76
2022/01/11 12:46:02;;;;;;;10.75;4.50;;;8.10;99.90;;;;;;5016445;28;20517;-76
2022/01/11 12:48:44;;;;;;;5.53;4.00;;;8.10;99.90;;;;;;5017065;28;20084;-76
2022/01/11 12:51:19;;;;;;;7.53;4.95;;;8.10;99.90;;;;;;5015653;28;20026;-76
2022/01/11 12:53:45;;;;;;;6.10;4.13;;;8.20;99.90;;;;;;5015871;28;20385;-76